createdAt,value
2023-02-26T00:01:31.400Z,1.80
2023-02-26T00:04:01.559Z,1.40
2023-02-26T00:06:32.067Z,1.75
2023-02-26T00:09:00.290Z,2.35
2023-02-26T00:11:28.052Z,2.90
2023-02-26T00:13:56.409Z,1.60
2023-02-26T00:16:26.858Z,1.90
2023-02-26T00:18:55.543Z,1.58
2023-02-26T00:21:24.663Z,2.10
2023-02-26T00:23:52.137Z,1.77
2023-02-26T00:26:19.785Z,2.05
2023-02-26T00:28:47.220Z,1.75
2023-02-26T00:31:18.743Z,1.58
2023-02-26T00:33:46.293Z,2.10
2023-02-26T00:36:22.007Z,1.80
2023-02-26T00:39:07.641Z,1.60
2023-02-26T00:41:36.614Z,1.63
2023-02-26T00:44:04.377Z,1.80
2023-02-26T00:47:04.226Z,1.80
2023-02-26T00:49:43.591Z,2.38
2023-02-26T00:52:42.120Z,1.98
2023-02-26T00:55:09.526Z,1.60
2023-02-26T00:57:37.248Z,1.70
2023-02-26T01:00:08.054Z,1.88
2023-02-26T01:02:36.695Z,1.70
2023-02-26T01:05:04.770Z,1.70
2023-02-26T01:07:40.603Z,1.98
2023-02-26T01:10:08.924Z,2.00
2023-02-26T01:12:36.550Z,1.80
2023-02-26T01:15:04.981Z,2.00
2023-02-26T01:17:39.798Z,1.90
2023-02-26T01:20:26.907Z,1.70
2023-02-26T01:23:15.662Z,1.92
2023-02-26T01:25:59.143Z,2.05
2023-02-26T01:28:27.387Z,2.20
2023-02-26T01:31:01.091Z,1.95
2023-02-26T01:33:31.692Z,2.08
2023-02-26T01:36:18.119Z,1.98
2023-02-26T01:38:52.341Z,2.00
2023-02-26T01:41:34.685Z,2.22
2023-02-26T01:44:23.210Z,1.73
2023-02-26T01:47:02.658Z,2.10
2023-02-26T01:49:31.824Z,1.90
2023-02-26T01:52:01.492Z,1.88
2023-02-26T01:54:33.943Z,2.10
2023-02-26T01:57:06.668Z,2.35
2023-02-26T01:59:37.462Z,2.30
2023-02-26T02:02:07.551Z,2.10
2023-02-26T02:04:35.066Z,2.00
2023-02-26T02:07:03.833Z,2.25
2023-02-26T02:09:31.514Z,2.28
2023-02-26T02:12:19.949Z,2.17
2023-02-26T02:15:09.968Z,2.50
2023-02-26T02:18:05.485Z,2.05
2023-02-26T02:20:47.735Z,2.28
2023-02-26T02:23:27.193Z,2.05
2023-02-26T02:26:00.184Z,2.60
2023-02-26T02:28:46.586Z,2.30
2023-02-26T02:31:16.864Z,2.10
2023-02-26T02:33:51.967Z,2.45
2023-02-26T02:36:47.164Z,2.17
2023-02-26T02:39:34.882Z,2.20
2023-02-26T02:42:20.055Z,2.50
2023-02-26T02:44:54.127Z,2.22
2023-02-26T02:47:23.708Z,2.47
2023-02-26T02:49:59.928Z,2.55
2023-02-26T02:52:42.818Z,1.92
2023-02-26T02:55:26.233Z,2.60
2023-02-26T02:58:02.464Z,2.33
2023-02-26T03:00:34.568Z,2.25
2023-02-26T03:03:19.002Z,2.53
2023-02-26T03:05:46.771Z,2.22
2023-02-26T03:08:18.021Z,2.17
2023-02-26T03:10:45.333Z,2.50
2023-02-26T03:13:18.250Z,2.60
2023-02-26T03:15:54.028Z,2.90
2023-02-26T03:18:55.696Z,2.45
2023-02-26T03:21:40.280Z,2.20
2023-02-26T03:24:13.971Z,2.50
2023-02-26T03:26:50.680Z,2.45
2023-02-26T03:29:45.593Z,2.03
2023-02-26T03:32:19.799Z,2.13
2023-02-26T03:34:52.837Z,1.90
2023-02-26T03:37:33.980Z,2.47
2023-02-26T03:40:07.682Z,2.33
2023-02-26T03:42:52.608Z,2.03
2023-02-26T03:45:29.095Z,2.00
2023-02-26T03:47:58.425Z,2.20
2023-02-26T03:50:34.084Z,2.40
2023-02-26T03:53:03.533Z,2.10
2023-02-26T03:55:36.453Z,2.03
2023-02-26T03:58:03.576Z,2.45
2023-02-26T04:00:34.109Z,2.13
2023-02-26T04:03:09.956Z,2.08
2023-02-26T04:05:41.162Z,2.20
2023-02-26T04:08:08.198Z,2.22
2023-02-26T04:10:55.472Z,2.28
2023-02-26T04:13:22.727Z,2.05
2023-02-26T04:15:50.114Z,2.17
2023-02-26T04:18:17.421Z,1.90
2023-02-26T04:20:44.804Z,1.98
2023-02-26T04:23:11.915Z,2.47
2023-02-26T04:25:39.122Z,2.20
2023-02-26T04:28:06.029Z,2.10
2023-02-26T04:30:33.172Z,2.30
2023-02-26T04:33:00.457Z,2.40
2023-02-26T04:35:27.665Z,2.20
2023-02-26T04:37:54.666Z,2.28
2023-02-26T04:40:23.951Z,2.10
2023-02-26T04:42:51.547Z,2.10
2023-02-26T04:45:18.988Z,2.13
2023-02-26T04:47:46.171Z,2.60
2023-02-26T04:50:13.325Z,2.53
2023-02-26T04:52:40.612Z,1.85
2023-02-26T04:55:08.625Z,2.40
2023-02-26T04:57:35.725Z,2.35
2023-02-26T05:00:06.785Z,2.28
2023-02-26T05:02:34.406Z,2.20
2023-02-26T05:05:02.028Z,2.20
2023-02-26T05:07:29.655Z,2.05
2023-02-26T05:09:57.412Z,1.92
2023-02-26T05:12:24.766Z,2.30
2023-02-26T05:14:52.176Z,2.28
2023-02-26T05:17:19.374Z,2.40
2023-02-26T05:19:46.337Z,2.42
2023-02-26T05:22:14.116Z,2.50
2023-02-26T05:24:41.791Z,3.17
2023-02-26T05:27:09.052Z,2.38
2023-02-26T05:29:36.355Z,2.17
2023-02-26T05:32:04.624Z,1.90
2023-02-26T05:34:31.781Z,2.47
2023-02-26T05:36:59.040Z,2.42
2023-02-26T05:39:26.215Z,2.45
2023-02-26T05:41:55.423Z,2.33
2023-02-26T05:44:23.463Z,2.63
2023-02-26T05:46:50.694Z,2.90
2023-02-26T05:49:17.978Z,3.30
2023-02-26T05:51:45.439Z,3.30
2023-02-26T05:54:12.570Z,2.50
2023-02-26T05:56:39.880Z,2.50
2023-02-26T05:59:07.114Z,3.90
2023-02-26T06:01:34.437Z,4.30
2023-02-26T06:04:01.625Z,2.38
2023-02-26T06:06:28.746Z,2.78
2023-02-26T06:08:55.690Z,2.10
2023-02-26T06:11:22.903Z,2.70
2023-02-26T06:13:50.288Z,2.85
2023-02-26T06:16:18.002Z,3.38
2023-02-26T06:18:45.480Z,2.90
2023-02-26T06:21:12.931Z,2.60
2023-02-26T06:23:40.156Z,3.13
2023-02-26T06:26:07.496Z,3.47
2023-02-26T06:28:34.831Z,3.00
2023-02-26T06:31:01.741Z,2.85
2023-02-26T06:33:29.188Z,2.60
2023-02-26T06:35:58.053Z,2.45
2023-02-26T06:38:25.341Z,2.45
2023-02-26T06:40:52.653Z,2.75
2023-02-26T06:43:20.213Z,2.83
2023-02-26T06:45:48.400Z,2.45
2023-02-26T06:48:16.101Z,2.60
2023-02-26T06:50:43.387Z,2.55
2023-02-26T06:53:10.691Z,2.47
2023-02-26T06:55:42.124Z,3.30
2023-02-26T06:58:09.432Z,2.70
2023-02-26T07:00:37.946Z,2.72
2023-02-26T07:03:05.630Z,2.60
2023-02-26T07:05:33.220Z,2.92
2023-02-26T07:08:00.416Z,2.70
2023-02-26T07:10:28.062Z,2.60
2023-02-26T07:12:55.292Z,2.72
2023-02-26T07:15:22.702Z,1.95
2023-02-26T07:17:49.688Z,2.40
2023-02-26T07:20:18.206Z,2.70
2023-02-26T07:22:45.454Z,2.90
2023-02-26T07:25:13.376Z,2.63
2023-02-26T07:27:43.366Z,2.90
2023-02-26T07:30:11.462Z,3.13
2023-02-26T07:32:38.716Z,2.30
2023-02-26T07:35:06.361Z,1.58
2023-02-26T07:37:33.420Z,2.25
2023-02-26T07:40:00.708Z,3.00
2023-02-26T07:42:28.040Z,4.13
2023-02-26T07:44:55.295Z,2.58
2023-02-26T07:47:22.501Z,2.88
2023-02-26T07:49:49.532Z,2.90
2023-02-26T07:52:16.790Z,2.78
2023-02-26T07:54:43.978Z,10.82
2023-02-26T07:57:11.463Z,8.50
2023-02-26T07:59:38.579Z,6.43
2023-02-26T08:02:06.793Z,3.75
2023-02-26T08:04:34.217Z,3.17
2023-02-26T08:07:01.895Z,3.05
2023-02-26T08:09:29.331Z,3.53
2023-02-26T08:11:57.012Z,2.22
2023-02-26T08:14:24.193Z,2.42
2023-02-26T08:16:53.115Z,2.00
2023-02-26T08:19:20.408Z,2.15
2023-02-26T08:21:47.990Z,2.75
2023-02-26T08:24:16.232Z,11.80
2023-02-26T08:26:43.315Z,25.90
2023-02-26T08:29:10.866Z,16.83
2023-02-26T08:31:38.187Z,7.85
2023-02-26T08:34:05.557Z,5.25
2023-02-26T08:36:32.814Z,2.90
2023-02-26T08:39:00.113Z,3.20
2023-02-26T08:41:29.964Z,3.30
2023-02-26T08:43:57.429Z,13.82
2023-02-26T08:46:25.257Z,4.07
2023-02-26T08:48:53.314Z,2.90
2023-02-26T08:51:21.819Z,4.75
2023-02-26T08:53:50.479Z,2.42
2023-02-26T08:56:18.238Z,3.63
2023-02-26T08:58:45.672Z,2.63
2023-02-26T09:01:12.850Z,2.17
2023-02-26T09:03:40.042Z,3.10
2023-02-26T09:06:07.453Z,2.65
2023-02-26T09:08:34.651Z,2.25
2023-02-26T09:11:03.066Z,2.55
2023-02-26T09:13:30.448Z,2.05
2023-02-26T09:15:58.073Z,2.97
2023-02-26T09:18:25.411Z,2.55
2023-02-26T09:20:52.502Z,2.25
2023-02-26T09:23:19.700Z,2.40
2023-02-26T09:25:46.899Z,2.50
2023-02-26T09:28:14.487Z,2.30
2023-02-26T09:30:42.102Z,2.40
2023-02-26T09:33:09.658Z,2.22
2023-02-26T09:35:37.032Z,2.10
2023-02-26T09:38:04.310Z,2.60
2023-02-26T09:40:42.575Z,2.38
2023-02-26T09:43:32.335Z,1.92
2023-02-26T09:46:04.610Z,2.33
2023-02-26T09:48:33.759Z,2.10
2023-02-26T09:51:01.002Z,2.00
2023-02-26T09:53:32.280Z,2.17
2023-02-26T09:56:04.885Z,1.88
2023-02-26T09:58:36.770Z,2.45
2023-02-26T10:01:16.549Z,1.90
2023-02-26T10:04:35.311Z,2.00
2023-02-26T10:07:11.231Z,2.00
2023-02-26T10:10:25.853Z,1.95
2023-02-26T10:12:55.321Z,1.98
2023-02-26T10:15:25.056Z,2.00
2023-02-26T10:18:17.703Z,2.10
2023-02-26T10:21:12.640Z,1.67
2023-02-26T10:26:22.631Z,1.60
2023-02-26T10:29:21.962Z,1.48
2023-02-26T10:32:15.237Z,1.55
2023-02-26T10:34:52.913Z,1.90
2023-02-26T10:37:32.854Z,2.42
2023-02-26T10:40:16.763Z,2.30
2023-02-26T10:42:46.044Z,2.17
2023-02-26T10:45:44.602Z,3.38
2023-02-26T10:48:23.387Z,2.28
2023-02-26T10:50:56.130Z,2.13
2023-02-26T10:53:24.889Z,2.25
2023-02-26T10:56:05.309Z,2.03
2023-02-26T10:58:32.650Z,2.05
2023-02-26T11:01:00.075Z,2.22
2023-02-26T11:03:32.371Z,2.33
2023-02-26T11:06:00.234Z,2.38
2023-02-26T11:08:33.171Z,1.88
2023-02-26T11:11:03.009Z,2.00
2023-02-26T11:13:32.924Z,1.58
2023-02-26T11:16:09.513Z,1.80
2023-02-26T11:18:50.875Z,1.77
2023-02-26T11:21:22.491Z,1.70
2023-02-26T11:23:53.097Z,1.70
2023-02-26T11:26:25.881Z,1.95
2023-02-26T11:28:55.335Z,1.80
2023-02-26T11:31:26.087Z,2.13
2023-02-26T11:33:59.943Z,2.05
2023-02-26T11:36:30.946Z,1.85
2023-02-26T11:39:07.226Z,2.20
2023-02-26T11:41:39.586Z,1.65
2023-02-26T11:44:13.790Z,2.00
2023-02-26T11:46:51.592Z,1.92
2023-02-26T11:49:24.388Z,1.90
2023-02-26T11:52:09.272Z,2.00
2023-02-26T11:54:39.226Z,1.88
2023-02-26T11:57:15.961Z,1.80
2023-02-26T11:59:49.066Z,2.25
2023-02-26T12:02:20.774Z,2.05
2023-02-26T12:04:52.744Z,2.22
2023-02-26T12:07:21.997Z,1.50
2023-02-26T12:09:49.790Z,1.90
2023-02-26T12:12:43.530Z,1.67
2023-02-26T12:15:32.774Z,2.05
2023-02-26T12:18:18.664Z,1.50
2023-02-26T12:20:56.932Z,1.98
2023-02-26T12:23:40.495Z,1.20
2023-02-26T12:26:26.202Z,1.65
2023-02-26T12:29:12.466Z,1.70
2023-02-26T12:32:06.660Z,1.60
2023-02-26T12:34:39.943Z,1.87
2023-02-26T12:37:25.030Z,1.70
2023-02-26T12:40:34.618Z,1.50
2023-02-26T12:43:01.986Z,1.70
2023-02-26T12:45:55.821Z,1.77
2023-02-26T12:48:43.960Z,1.55
2023-02-26T12:51:51.520Z,1.75
2023-02-26T12:54:27.804Z,1.60
2023-02-26T12:57:03.651Z,1.50
2023-02-26T12:59:30.787Z,1.65
2023-02-26T13:02:32.375Z,1.38
2023-02-26T13:05:14.567Z,1.80
2023-02-26T13:07:51.374Z,1.90
2023-02-26T13:10:33.009Z,2.40
2023-02-26T13:13:40.756Z,2.20
2023-02-26T13:16:22.060Z,1.52
2023-02-26T13:19:01.819Z,1.52
2023-02-26T13:21:35.210Z,1.90
2023-02-26T13:24:24.656Z,1.48
2023-02-26T13:26:53.785Z,1.45
2023-02-26T13:29:29.658Z,1.60
2023-02-26T13:32:05.695Z,2.40
2023-02-26T13:34:42.674Z,2.30
2023-02-26T13:37:27.232Z,1.58
2023-02-26T13:40:02.161Z,2.33
2023-02-26T13:42:51.775Z,1.70
2023-02-26T13:45:52.471Z,1.27
2023-02-26T13:48:38.581Z,1.10
2023-02-26T13:51:30.406Z,1.42
2023-02-26T13:54:43.157Z,1.42
2023-02-26T13:57:26.452Z,1.70
2023-02-26T14:00:20.067Z,1.27
2023-02-26T14:02:56.557Z,1.27
2023-02-26T14:05:46.531Z,1.48
2023-02-26T14:08:39.379Z,1.20
2023-02-26T14:11:34.276Z,1.52
2023-02-26T14:14:23.067Z,1.42
2023-02-26T14:17:07.255Z,1.80
2023-02-26T14:19:41.295Z,1.58
2023-02-26T14:22:30.037Z,1.33
2023-02-26T14:25:20.366Z,0.95
2023-02-26T14:27:48.979Z,1.05
2023-02-26T14:30:29.570Z,1.30
2023-02-26T14:33:05.927Z,0.90
2023-02-26T14:35:39.682Z,1.40
2023-02-26T14:38:12.767Z,1.30
2023-02-26T14:40:46.765Z,1.30
2023-02-26T14:43:21.870Z,1.10
2023-02-26T14:45:51.145Z,1.27
2023-02-26T14:48:21.899Z,1.15
2023-02-26T14:51:04.111Z,1.00
2023-02-26T14:54:03.194Z,1.23
2023-02-26T14:56:54.476Z,1.50
2023-02-26T14:59:30.064Z,1.10
2023-02-26T15:02:23.327Z,1.08
2023-02-26T15:04:58.972Z,1.30
2023-02-26T15:07:55.055Z,1.48
2023-02-26T15:11:06.272Z,1.30
2023-02-26T15:13:42.431Z,1.13
2023-02-26T15:16:36.501Z,1.15
2023-02-26T15:19:19.078Z,1.83
2023-02-26T15:22:09.827Z,1.60
2023-02-26T15:24:37.120Z,1.75
2023-02-26T15:27:07.904Z,1.20
2023-02-26T15:29:41.222Z,1.15
2023-02-26T15:32:26.056Z,0.98
2023-02-26T15:37:35.874Z,1.38
2023-02-26T15:40:07.973Z,1.02
2023-02-26T15:42:39.571Z,1.00
2023-02-26T15:45:17.153Z,1.15
2023-02-26T15:47:44.733Z,1.10
2023-02-26T15:50:17.348Z,1.10
2023-02-26T15:52:45.772Z,1.10
2023-02-26T15:55:18.000Z,0.90
2023-02-26T15:57:45.449Z,0.90
2023-02-26T16:00:25.817Z,1.17
2023-02-26T16:03:00.183Z,1.00
2023-02-26T16:05:29.219Z,1.40
2023-02-26T16:07:57.035Z,1.13
2023-02-26T16:10:38.863Z,1.30
2023-02-26T16:13:08.849Z,1.30
2023-02-26T16:15:40.751Z,1.30
2023-02-26T16:18:14.336Z,1.40
2023-02-26T16:20:51.678Z,1.33
2023-02-26T16:23:24.163Z,1.50
2023-02-26T16:25:58.995Z,1.40
2023-02-26T16:28:35.492Z,1.63
2023-02-26T16:31:05.383Z,1.33
2023-02-26T16:33:35.263Z,1.60
2023-02-26T16:36:16.317Z,1.33
2023-02-26T16:38:47.385Z,1.65
2023-02-26T16:41:14.829Z,1.38
2023-02-26T16:43:51.804Z,1.50
2023-02-26T16:46:42.802Z,1.90
2023-02-26T16:49:23.864Z,1.73
2023-02-26T16:51:52.945Z,1.85
2023-02-26T16:54:30.959Z,1.65
2023-02-26T16:57:04.530Z,1.58
2023-02-26T16:59:44.462Z,2.00
2023-02-26T17:02:16.254Z,2.08
2023-02-26T17:04:43.617Z,3.80
2023-02-26T17:07:27.959Z,1.40
2023-02-26T17:10:04.856Z,2.30
2023-02-26T17:12:50.141Z,1.20
2023-02-26T17:15:30.713Z,6.78
2023-02-26T17:17:59.061Z,0.95
2023-02-26T17:20:27.809Z,1.10
2023-02-26T17:22:56.589Z,1.55
2023-02-26T17:25:26.833Z,1.10
2023-02-26T17:27:54.265Z,1.20
2023-02-26T17:30:30.061Z,1.10
2023-02-26T17:32:57.537Z,1.20
2023-02-26T17:35:25.031Z,0.95
2023-02-26T17:37:52.603Z,1.80
2023-02-26T17:40:26.803Z,1.20
2023-02-26T17:42:54.441Z,1.30
2023-02-26T17:45:21.626Z,1.40
2023-02-26T17:47:50.124Z,1.30
2023-02-26T17:50:40.285Z,1.42
2023-02-26T17:53:08.642Z,1.42
2023-02-26T17:55:39.480Z,1.52
2023-02-26T17:58:08.151Z,1.30
2023-02-26T18:00:40.698Z,1.30
2023-02-26T18:03:12.392Z,1.40
2023-02-26T18:05:41.218Z,1.15
2023-02-26T18:08:20.965Z,1.13
2023-02-26T18:10:48.116Z,0.90
2023-02-26T18:13:15.473Z,1.08
2023-02-26T18:15:42.959Z,1.20
2023-02-26T18:18:12.759Z,1.00
2023-02-26T18:20:40.639Z,1.40
2023-02-26T18:23:08.261Z,0.88
2023-02-26T18:25:37.190Z,1.10
2023-02-26T18:28:05.808Z,1.10
2023-02-26T18:30:36.528Z,1.38
2023-02-26T18:33:04.015Z,1.00
2023-02-26T18:35:32.681Z,1.20
2023-02-26T18:38:00.762Z,1.20
2023-02-26T18:40:28.503Z,1.00
2023-02-26T18:42:55.849Z,1.20
2023-02-26T18:45:23.351Z,1.40
2023-02-26T18:47:50.740Z,1.15
2023-02-26T18:50:18.965Z,1.10
2023-02-26T18:52:46.311Z,3.53
2023-02-26T18:55:14.739Z,21.13
2023-02-26T18:57:43.493Z,7.75
2023-02-26T19:00:16.717Z,9.05
2023-02-26T19:02:45.731Z,9.13
2023-02-26T19:05:14.987Z,5.22
2023-02-26T19:07:43.051Z,2.38
2023-02-26T19:10:14.578Z,3.38
2023-02-26T19:12:42.934Z,2.95
2023-02-26T19:15:11.441Z,2.10
2023-02-26T19:17:39.680Z,1.50
2023-02-26T19:20:07.754Z,1.10
2023-02-26T19:22:34.946Z,1.02
2023-02-26T19:25:02.235Z,1.30
2023-02-26T19:27:29.949Z,1.60
2023-02-26T19:29:57.037Z,1.30
2023-02-26T19:32:26.210Z,1.20
2023-02-26T19:34:54.635Z,1.70
2023-02-26T19:37:22.552Z,1.23
2023-02-26T19:39:50.602Z,1.30
2023-02-26T19:42:18.757Z,1.27
2023-02-26T19:44:46.104Z,1.35
2023-02-26T19:47:13.181Z,1.30
2023-02-26T19:49:40.359Z,1.00
2023-02-26T19:52:08.682Z,1.10
2023-02-26T19:54:36.026Z,0.90
2023-02-26T19:57:03.120Z,1.40
2023-02-26T19:59:30.277Z,1.50
2023-02-26T20:01:57.283Z,1.90
2023-02-26T20:04:24.417Z,2.25
2023-02-26T20:06:51.911Z,1.40
2023-02-26T20:09:20.375Z,2.60
2023-02-26T20:11:47.716Z,1.20
2023-02-26T20:14:15.105Z,1.20
2023-02-26T20:16:42.342Z,1.30
2023-02-26T20:19:09.462Z,1.20
2023-02-26T20:21:36.920Z,1.63
2023-02-26T20:24:05.415Z,1.63
2023-02-26T20:26:32.891Z,1.60
2023-02-26T20:29:00.752Z,1.33
2023-02-26T20:31:28.579Z,1.05
2023-02-26T20:33:56.608Z,1.30
2023-02-26T20:36:24.672Z,1.40
2023-02-26T20:38:52.114Z,1.60
2023-02-26T20:41:19.997Z,1.10
2023-02-26T20:43:47.221Z,1.30
2023-02-26T20:46:14.642Z,1.40
2023-02-26T20:48:44.239Z,1.70
2023-02-26T20:51:12.312Z,1.50
2023-02-26T20:53:40.134Z,1.73
2023-02-26T20:56:07.634Z,2.25
2023-02-26T20:58:34.910Z,1.70
2023-02-26T21:01:02.145Z,1.90
2023-02-26T21:03:29.368Z,2.10
2023-02-26T21:05:56.499Z,2.33
2023-02-26T21:08:23.730Z,3.80
2023-02-26T21:10:52.054Z,3.28
2023-02-26T21:13:19.988Z,1.70
2023-02-26T21:15:49.091Z,2.17
2023-02-26T21:18:16.286Z,1.40
2023-02-26T21:20:43.503Z,1.48
2023-02-26T21:23:10.831Z,1.42
2023-02-26T21:25:39.592Z,1.10
2023-02-26T21:28:06.888Z,1.40
2023-02-26T21:30:34.174Z,1.40
2023-02-26T21:33:01.339Z,1.40
2023-02-26T21:35:29.122Z,1.10
2023-02-26T21:37:56.568Z,1.50
2023-02-26T21:40:24.977Z,1.25
2023-02-26T21:42:52.098Z,1.13
2023-02-26T21:45:19.606Z,1.20
2023-02-26T21:47:46.809Z,1.33
2023-02-26T21:50:14.096Z,1.30
2023-02-26T21:52:41.220Z,1.30
2023-02-26T21:55:08.808Z,1.38
2023-02-26T21:57:35.888Z,1.10
2023-02-26T22:00:06.011Z,1.42
2023-02-26T22:02:33.302Z,1.35
2023-02-26T22:05:00.724Z,1.17
2023-02-26T22:07:28.296Z,1.15
2023-02-26T22:09:55.417Z,1.40
2023-02-26T22:12:22.765Z,1.30
2023-02-26T22:14:49.981Z,1.35
2023-02-26T22:17:17.118Z,1.58
2023-02-26T22:19:44.199Z,1.42
2023-02-26T22:22:11.547Z,1.50
2023-02-26T22:24:40.992Z,1.70
2023-02-26T22:27:07.952Z,1.50
2023-02-26T22:29:35.097Z,1.63
2023-02-26T22:32:03.159Z,1.55
2023-02-26T22:34:33.721Z,1.60
2023-02-26T22:37:02.686Z,3.90
2023-02-26T22:39:29.850Z,1.90
2023-02-26T22:41:57.018Z,2.45
2023-02-26T22:44:24.368Z,2.00
2023-02-26T22:46:51.604Z,2.03
2023-02-26T22:49:19.751Z,2.40
2023-02-26T22:51:47.561Z,2.08
2023-02-26T22:54:14.785Z,2.20
2023-02-26T22:56:41.791Z,1.83
2023-02-26T22:59:08.991Z,2.38
2023-02-26T23:01:36.359Z,2.13
2023-02-26T23:04:03.722Z,1.65
2023-02-26T23:06:30.851Z,1.80
2023-02-26T23:08:58.082Z,2.45
2023-02-26T23:11:25.782Z,3.55
2023-02-26T23:13:53.218Z,2.75
2023-02-26T23:16:20.474Z,4.40
2023-02-26T23:18:48.513Z,4.57
2023-02-26T23:21:16.070Z,1.92
2023-02-26T23:23:44.029Z,5.72
2023-02-26T23:26:11.878Z,6.55
2023-02-26T23:28:39.316Z,1.90
2023-02-26T23:31:06.903Z,2.92
2023-02-26T23:33:34.930Z,2.80
2023-02-26T23:36:02.991Z,2.40
2023-02-26T23:38:30.374Z,2.17
2023-02-26T23:40:57.789Z,2.92
2023-02-26T23:43:25.361Z,2.30
2023-02-26T23:45:52.466Z,2.60
2023-02-26T23:48:19.682Z,2.70
2023-02-26T23:50:49.236Z,2.30
2023-02-26T23:53:16.502Z,1.65
2023-02-26T23:55:43.836Z,1.90
2023-02-26T23:58:10.973Z,1.40
